sensor_id;sensor_type;location;lat;lon;timestamp;temperature;humidity
13310;DHT22;6723;48.256;16.402;2024-02-21T00:00:57;8.60;99.90
13310;DHT22;6723;48.256;16.402;2024-02-21T00:03:23;8.60;99.90
13310;DHT22;6723;48.256;16.402;2024-02-21T00:05:48;8.60;99.90
13310;DHT22;6723;48.256;16.402;2024-02-21T00:08:14;8.60;99.90
13310;DHT22;6723;48.256;16.402;2024-02-21T00:10:40;8.60;99.90
13310;DHT22;6723;48.256;16.402;2024-02-21T00:13:06;8.60;99.90
13310;DHT22;6723;48.256;16.402;2024-02-21T00:15:32;8.60;99.90
13310;DHT22;6723;48.256;16.402;2024-02-21T00:17:57;8.60;99.90
13310;DHT22;6723;48.256;16.402;2024-02-21T00:20:24;8.60;99.90
13310;DHT22;6723;48.256;16.402;2024-02-21T00:22:51;8.50;99.90
13310;DHT22;6723;48.256;16.402;2024-02-21T00:25:18;8.50;99.90
13310;DHT22;6723;48.256;16.402;2024-02-21T00:27:43;8.50;99.90
13310;DHT22;6723;48.256;16.402;2024-02-21T00:30:10;8.50;99.90
13310;DHT22;6723;48.256;16.402;2024-02-21T00:32:36;8.50;99.90
13310;DHT22;6723;48.256;16.402;2024-02-21T00:35:02;8.50;99.90
13310;DHT22;6723;48.256;16.402;2024-02-21T00:37:28;8.50;99.90
13310;DHT22;6723;48.256;16.402;2024-02-21T00:39:56;8.50;99.90
13310;DHT22;6723;48.256;16.402;2024-02-21T00:42:22;8.50;99.90
13310;DHT22;6723;48.256;16.402;2024-02-21T00:44:48;8.50;99.90
13310;DHT22;6723;48.256;16.402;2024-02-21T00:47:14;8.50;99.90
13310;DHT22;6723;48.256;16.402;2024-02-21T00:49:40;8.50;99.90
13310;DHT22;6723;48.256;16.402;2024-02-21T00:52:06;8.50;99.90
13310;DHT22;6723;48.256;16.402;2024-02-21T00:54:31;8.50;99.90
13310;DHT22;6723;48.256;16.402;2024-02-21T00:56:57;8.50;99.90
13310;DHT22;6723;48.256;16.402;2024-02-21T00:59:23;8.50;99.90
13310;DHT22;6723;48.256;16.402;2024-02-21T01:01:49;8.50;99.90
13310;DHT22;6723;48.256;16.402;2024-02-21T01:04:14;8.50;99.90
13310;DHT22;6723;48.256;16.402;2024-02-21T01:06:40;8.50;99.90
13310;DHT22;6723;48.256;16.402;2024-02-21T01:09:08;8.50;99.90
13310;DHT22;6723;48.256;16.402;2024-02-21T01:11:34;8.50;99.90
13310;DHT22;6723;48.256;16.402;2024-02-21T01:14:00;8.50;99.90
13310;DHT22;6723;48.256;16.402;2024-02-21T01:16:26;8.50;99.90
13310;DHT22;6723;48.256;16.402;2024-02-21T01:18:51;8.50;99.90
13310;DHT22;6723;48.256;16.402;2024-02-21T01:21:17;8.60;99.90
13310;DHT22;6723;48.256;16.402;2024-02-21T01:23:43;8.50;99.90
13310;DHT22;6723;48.256;16.402;2024-02-21T01:26:09;8.50;99.90
13310;DHT22;6723;48.256;16.402;2024-02-21T01:28:38;8.50;99.90
13310;DHT22;6723;48.256;16.402;2024-02-21T01:31:04;8.50;99.90
13310;DHT22;6723;48.256;16.402;2024-02-21T01:33:30;8.60;99.90
13310;DHT22;6723;48.256;16.402;2024-02-21T01:36:04;8.60;99.90
13310;DHT22;6723;48.256;16.402;2024-02-21T01:38:34;8.60;99.90
13310;DHT22;6723;48.256;16.402;2024-02-21T01:41:00;8.60;99.90
13310;DHT22;6723;48.256;16.402;2024-02-21T01:43:26;8.60;99.90
13310;DHT22;6723;48.256;16.402;2024-02-21T01:45:56;8.60;99.90
13310;DHT22;6723;48.256;16.402;2024-02-21T01:48:23;8.60;99.90
13310;DHT22;6723;48.256;16.402;2024-02-21T01:50:50;8.60;99.90
13310;DHT22;6723;48.256;16.402;2024-02-21T01:53:22;8.60;99.90
13310;DHT22;6723;48.256;16.402;2024-02-21T01:55:48;8.60;99.90
13310;DHT22;6723;48.256;16.402;2024-02-21T01:58:18;8.60;99.90
13310;DHT22;6723;48.256;16.402;2024-02-21T02:00:46;8.60;99.90
13310;DHT22;6723;48.256;16.402;2024-02-21T02:03:13;8.60;99.90
13310;DHT22;6723;48.256;16.402;2024-02-21T02:05:46;8.70;99.90
13310;DHT22;6723;48.256;16.402;2024-02-21T02:08:17;8.70;99.90
13310;DHT22;6723;48.256;16.402;2024-02-21T02:10:47;8.70;99.90
13310;DHT22;6723;48.256;16.402;2024-02-21T02:13:13;8.60;99.90
13310;DHT22;6723;48.256;16.402;2024-02-21T02:15:47;8.60;99.90
13310;DHT22;6723;48.256;16.402;2024-02-21T02:18:14;8.60;99.90
13310;DHT22;6723;48.256;16.402;2024-02-21T02:20:40;8.60;99.90
13310;DHT22;6723;48.256;16.402;2024-02-21T02:23:26;8.60;99.90
13310;DHT22;6723;48.256;16.402;2024-02-21T02:25:53;8.60;99.90
13310;DHT22;6723;48.256;16.402;2024-02-21T02:28:20;8.50;99.90
13310;DHT22;6723;48.256;16.402;2024-02-21T02:30:46;8.50;99.90
13310;DHT22;6723;48.256;16.402;2024-02-21T02:33:12;8.50;99.90
13310;DHT22;6723;48.256;16.402;2024-02-21T02:35:39;8.50;99.90
13310;DHT22;6723;48.256;16.402;2024-02-21T02:38:05;8.50;99.90
13310;DHT22;6723;48.256;16.402;2024-02-21T02:40:33;8.50;99.90
13310;DHT22;6723;48.256;16.402;2024-02-21T02:42:58;8.50;99.90
13310;DHT22;6723;48.256;16.402;2024-02-21T02:45:24;8.50;99.90
13310;DHT22;6723;48.256;16.402;2024-02-21T02:47:52;8.40;99.90
13310;DHT22;6723;48.256;16.402;2024-02-21T02:50:20;8.50;99.90
13310;DHT22;6723;48.256;16.402;2024-02-21T02:52:46;8.50;99.90
13310;DHT22;6723;48.256;16.402;2024-02-21T02:55:12;8.50;99.90
13310;DHT22;6723;48.256;16.402;2024-02-21T02:57:37;8.50;99.90
13310;DHT22;6723;48.256;16.402;2024-02-21T03:00:04;8.40;99.90
13310;DHT22;6723;48.256;16.402;2024-02-21T03:02:32;8.50;99.90
13310;DHT22;6723;48.256;16.402;2024-02-21T03:04:58;8.40;99.90
13310;DHT22;6723;48.256;16.402;2024-02-21T03:07:25;8.40;99.90
13310;DHT22;6723;48.256;16.402;2024-02-21T03:09:51;8.50;99.90
13310;DHT22;6723;48.256;16.402;2024-02-21T03:12:18;8.40;99.90
13310;DHT22;6723;48.256;16.402;2024-02-21T03:14:53;8.40;99.90
13310;DHT22;6723;48.256;16.402;2024-02-21T03:17:19;8.50;99.90
13310;DHT22;6723;48.256;16.402;2024-02-21T03:19:45;8.40;99.90
13310;DHT22;6723;48.256;16.402;2024-02-21T03:22:10;8.40;99.90
13310;DHT22;6723;48.256;16.402;2024-02-21T03:24:36;8.50;99.90
13310;DHT22;6723;48.256;16.402;2024-02-21T03:27:02;8.40;99.90
13310;DHT22;6723;48.256;16.402;2024-02-21T03:29:28;8.50;99.90
13310;DHT22;6723;48.256;16.402;2024-02-21T03:31:55;8.50;99.90
13310;DHT22;6723;48.256;16.402;2024-02-21T03:34:20;8.50;99.90
13310;DHT22;6723;48.256;16.402;2024-02-21T03:36:46;8.50;99.90
13310;DHT22;6723;48.256;16.402;2024-02-21T03:39:12;8.50;99.90
13310;DHT22;6723;48.256;16.402;2024-02-21T03:41:38;8.50;99.90
13310;DHT22;6723;48.256;16.402;2024-02-21T03:44:04;8.50;99.90
13310;DHT22;6723;48.256;16.402;2024-02-21T03:46:30;8.50;99.90
13310;DHT22;6723;48.256;16.402;2024-02-21T03:48:56;8.50;99.90
13310;DHT22;6723;48.256;16.402;2024-02-21T03:51:22;8.50;99.90
13310;DHT22;6723;48.256;16.402;2024-02-21T03:53:48;8.50;99.90
13310;DHT22;6723;48.256;16.402;2024-02-21T03:56:14;8.50;99.90
13310;DHT22;6723;48.256;16.402;2024-02-21T03:58:40;8.50;99.90
13310;DHT22;6723;48.256;16.402;2024-02-21T04:01:06;8.50;99.90
13310;DHT22;6723;48.256;16.402;2024-02-21T04:03:31;8.40;99.90
13310;DHT22;6723;48.256;16.402;2024-02-21T04:05:57;8.40;99.90
13310;DHT22;6723;48.256;16.402;2024-02-21T04:08:23;8.40;99.90
13310;DHT22;6723;48.256;16.402;2024-02-21T04:10:49;8.40;99.90
13310;DHT22;6723;48.256;16.402;2024-02-21T04:13:15;8.30;99.90
13310;DHT22;6723;48.256;16.402;2024-02-21T04:15:41;8.30;99.90
13310;DHT22;6723;48.256;16.402;2024-02-21T04:18:07;8.30;99.90
13310;DHT22;6723;48.256;16.402;2024-02-21T04:20:33;8.20;99.90
13310;DHT22;6723;48.256;16.402;2024-02-21T04:22:59;8.20;99.90
13310;DHT22;6723;48.256;16.402;2024-02-21T04:25:25;8.20;99.90
13310;DHT22;6723;48.256;16.402;2024-02-21T04:27:51;8.10;99.90
13310;DHT22;6723;48.256;16.402;2024-02-21T04:30:18;8.00;99.90
13310;DHT22;6723;48.256;16.402;2024-02-21T04:32:44;8.00;99.90
13310;DHT22;6723;48.256;16.402;2024-02-21T04:35:09;8.00;99.90
13310;DHT22;6723;48.256;16.402;2024-02-21T04:37:35;8.00;99.90
13310;DHT22;6723;48.256;16.402;2024-02-21T04:40:01;8.00;99.90
13310;DHT22;6723;48.256;16.402;2024-02-21T04:42:27;8.10;99.90
13310;DHT22;6723;48.256;16.402;2024-02-21T04:44:53;8.10;99.90
13310;DHT22;6723;48.256;16.402;2024-02-21T04:47:19;8.10;99.90
13310;DHT22;6723;48.256;16.402;2024-02-21T04:49:46;8.10;99.90
13310;DHT22;6723;48.256;16.402;2024-02-21T04:52:12;8.10;99.90
13310;DHT22;6723;48.256;16.402;2024-02-21T04:54:37;8.10;99.90
13310;DHT22;6723;48.256;16.402;2024-02-21T04:57:04;8.10;99.90
13310;DHT22;6723;48.256;16.402;2024-02-21T04:59:30;8.10;99.90
13310;DHT22;6723;48.256;16.402;2024-02-21T05:01:56;8.10;99.90
13310;DHT22;6723;48.256;16.402;2024-02-21T05:04:21;8.10;99.90
13310;DHT22;6723;48.256;16.402;2024-02-21T05:06:47;8.10;99.90
13310;DHT22;6723;48.256;16.402;2024-02-21T05:09:13;8.10;99.90
13310;DHT22;6723;48.256;16.402;2024-02-21T05:11:39;8.10;99.90
13310;DHT22;6723;48.256;16.402;2024-02-21T05:14:05;8.10;99.90
13310;DHT22;6723;48.256;16.402;2024-02-21T05:16:31;8.10;99.90
13310;DHT22;6723;48.256;16.402;2024-02-21T05:18:57;8.20;99.90
13310;DHT22;6723;48.256;16.402;2024-02-21T05:21:23;8.10;99.90
13310;DHT22;6723;48.256;16.402;2024-02-21T05:23:50;8.10;99.90
13310;DHT22;6723;48.256;16.402;2024-02-21T05:26:26;8.10;99.90
13310;DHT22;6723;48.256;16.402;2024-02-21T05:28:52;8.10;99.90
13310;DHT22;6723;48.256;16.402;2024-02-21T05:31:19;8.10;99.90
13310;DHT22;6723;48.256;16.402;2024-02-21T05:33:45;8.10;99.90
13310;DHT22;6723;48.256;16.402;2024-02-21T05:36:14;8.10;99.90
13310;DHT22;6723;48.256;16.402;2024-02-21T05:38:40;8.10;99.90
13310;DHT22;6723;48.256;16.402;2024-02-21T05:41:06;8.10;99.90
13310;DHT22;6723;48.256;16.402;2024-02-21T05:43:32;8.10;99.90
13310;DHT22;6723;48.256;16.402;2024-02-21T05:45:58;8.10;99.90
13310;DHT22;6723;48.256;16.402;2024-02-21T05:48:24;8.10;99.90
13310;DHT22;6723;48.256;16.402;2024-02-21T05:50:50;8.10;99.90
13310;DHT22;6723;48.256;16.402;2024-02-21T05:53:16;8.10;99.90
13310;DHT22;6723;48.256;16.402;2024-02-21T05:55:43;8.10;99.90
13310;DHT22;6723;48.256;16.402;2024-02-21T05:58:09;8.20;99.90
13310;DHT22;6723;48.256;16.402;2024-02-21T06:00:38;8.20;99.90
13310;DHT22;6723;48.256;16.402;2024-02-21T06:03:04;8.20;99.90
13310;DHT22;6723;48.256;16.402;2024-02-21T06:05:31;8.20;99.90
13310;DHT22;6723;48.256;16.402;2024-02-21T06:07:57;8.20;99.90
13310;DHT22;6723;48.256;16.402;2024-02-21T06:10:23;8.20;99.90
13310;DHT22;6723;48.256;16.402;2024-02-21T06:12:49;8.30;99.90
13310;DHT22;6723;48.256;16.402;2024-02-21T06:15:14;8.30;99.90
13310;DHT22;6723;48.256;16.402;2024-02-21T06:17:40;8.30;99.90
13310;DHT22;6723;48.256;16.402;2024-02-21T06:20:06;8.30;99.90
13310;DHT22;6723;48.256;16.402;2024-02-21T06:22:32;8.30;99.90
13310;DHT22;6723;48.256;16.402;2024-02-21T06:24:59;8.40;99.90
13310;DHT22;6723;48.256;16.402;2024-02-21T06:27:24;8.40;99.90
13310;DHT22;6723;48.256;16.402;2024-02-21T06:29:51;8.40;99.90
13310;DHT22;6723;48.256;16.402;2024-02-21T06:32:17;8.50;99.90
13310;DHT22;6723;48.256;16.402;2024-02-21T06:34:42;8.50;99.90
13310;DHT22;6723;48.256;16.402;2024-02-21T06:37:09;8.50;99.90
13310;DHT22;6723;48.256;16.402;2024-02-21T06:39:35;8.50;99.90
13310;DHT22;6723;48.256;16.402;2024-02-21T06:42:03;8.60;99.90
13310;DHT22;6723;48.256;16.402;2024-02-21T06:44:29;8.60;99.90
13310;DHT22;6723;48.256;16.402;2024-02-21T06:46:55;8.70;99.90
13310;DHT22;6723;48.256;16.402;2024-02-21T06:49:21;8.70;99.90
13310;DHT22;6723;48.256;16.402;2024-02-21T06:51:47;8.70;99.90
13310;DHT22;6723;48.256;16.402;2024-02-21T06:54:12;8.70;99.90
13310;DHT22;6723;48.256;16.402;2024-02-21T06:56:40;8.80;99.90
13310;DHT22;6723;48.256;16.402;2024-02-21T06:59:06;8.80;99.90
13310;DHT22;6723;48.256;16.402;2024-02-21T07:01:32;8.80;99.90
13310;DHT22;6723;48.256;16.402;2024-02-21T07:03:57;8.80;99.90
13310;DHT22;6723;48.256;16.402;2024-02-21T07:06:23;8.90;99.90
13310;DHT22;6723;48.256;16.402;2024-02-21T07:08:50;8.90;99.90
13310;DHT22;6723;48.256;16.402;2024-02-21T07:11:15;9.00;99.90
13310;DHT22;6723;48.256;16.402;2024-02-21T07:13:41;9.00;99.90
13310;DHT22;6723;48.256;16.402;2024-02-21T07:16:07;9.00;99.90
13310;DHT22;6723;48.256;16.402;2024-02-21T07:18:34;8.90;99.90
13310;DHT22;6723;48.256;16.402;2024-02-21T07:20:59;8.90;99.90
13310;DHT22;6723;48.256;16.402;2024-02-21T07:23:25;9.00;99.90
13310;DHT22;6723;48.256;16.402;2024-02-21T07:25:51;9.10;99.90
13310;DHT22;6723;48.256;16.402;2024-02-21T07:28:17;9.10;99.90
13310;DHT22;6723;48.256;16.402;2024-02-21T07:30:43;9.20;99.90
13310;DHT22;6723;48.256;16.402;2024-02-21T07:33:09;9.20;99.90
13310;DHT22;6723;48.256;16.402;2024-02-21T07:35:35;9.30;99.90
13310;DHT22;6723;48.256;16.402;2024-02-21T07:38:04;9.30;99.90
13310;DHT22;6723;48.256;16.402;2024-02-21T07:40:30;9.50;99.70
13310;DHT22;6723;48.256;16.402;2024-02-21T07:42:56;9.50;99.30
13310;DHT22;6723;48.256;16.402;2024-02-21T07:45:22;9.70;99.50
13310;DHT22;6723;48.256;16.402;2024-02-21T07:47:50;9.70;99.00
13310;DHT22;6723;48.256;16.402;2024-02-21T07:50:16;9.70;98.60
13310;DHT22;6723;48.256;16.402;2024-02-21T07:52:42;9.70;98.50
13310;DHT22;6723;48.256;16.402;2024-02-21T07:55:08;9.70;98.50
13310;DHT22;6723;48.256;16.402;2024-02-21T07:57:36;9.80;98.40
13310;DHT22;6723;48.256;16.402;2024-02-21T08:00:02;9.90;98.20
13310;DHT22;6723;48.256;16.402;2024-02-21T08:02:29;9.90;98.20
13310;DHT22;6723;48.256;16.402;2024-02-21T08:04:55;10.10;97.60
13310;DHT22;6723;48.256;16.402;2024-02-21T08:07:21;10.30;99.20
13310;DHT22;6723;48.256;16.402;2024-02-21T08:09:47;10.90;99.90
13310;DHT22;6723;48.256;16.402;2024-02-21T08:12:13;11.30;99.10
13310;DHT22;6723;48.256;16.402;2024-02-21T08:14:38;11.30;96.90
13310;DHT22;6723;48.256;16.402;2024-02-21T08:17:04;11.00;96.10
13310;DHT22;6723;48.256;16.402;2024-02-21T08:19:30;10.80;96.20
13310;DHT22;6723;48.256;16.402;2024-02-21T08:21:56;11.10;96.10
13310;DHT22;6723;48.256;16.402;2024-02-21T08:24:22;11.50;95.70
13310;DHT22;6723;48.256;16.402;2024-02-21T08:26:48;11.90;94.80
13310;DHT22;6723;48.256;16.402;2024-02-21T08:29:14;12.40;94.30
13310;DHT22;6723;48.256;16.402;2024-02-21T08:31:40;12.80;93.70
13310;DHT22;6723;48.256;16.402;2024-02-21T08:34:06;12.80;93.00
13310;DHT22;6723;48.256;16.402;2024-02-21T08:36:33;12.70;93.10
13310;DHT22;6723;48.256;16.402;2024-02-21T08:39:00;12.90;92.90
13310;DHT22;6723;48.256;16.402;2024-02-21T08:41:26;13.40;92.50
13310;DHT22;6723;48.256;16.402;2024-02-21T08:43:53;13.40;92.30
13310;DHT22;6723;48.256;16.402;2024-02-21T08:46:22;13.90;92.00
13310;DHT22;6723;48.256;16.402;2024-02-21T08:48:50;14.10;91.40
13310;DHT22;6723;48.256;16.402;2024-02-21T08:51:17;14.30;91.30
13310;DHT22;6723;48.256;16.402;2024-02-21T08:53:44;14.30;90.90
13310;DHT22;6723;48.256;16.402;2024-02-21T08:56:09;14.10;90.40
13310;DHT22;6723;48.256;16.402;2024-02-21T08:58:36;13.30;90.70
13310;DHT22;6723;48.256;16.402;2024-02-21T09:01:06;13.90;91.00
13310;DHT22;6723;48.256;16.402;2024-02-21T09:03:39;14.10;90.70
13310;DHT22;6723;48.256;16.402;2024-02-21T09:06:09;15.00;89.70
13310;DHT22;6723;48.256;16.402;2024-02-21T09:08:35;15.70;88.50
13310;DHT22;6723;48.256;16.402;2024-02-21T09:11:01;16.30;85.80
13310;DHT22;6723;48.256;16.402;2024-02-21T09:13:27;16.30;86.10
13310;DHT22;6723;48.256;16.402;2024-02-21T09:15:53;17.40;85.10
13310;DHT22;6723;48.256;16.402;2024-02-21T09:18:19;18.70;84.50
13310;DHT22;6723;48.256;16.402;2024-02-21T09:20:45;19.30;77.80
13310;DHT22;6723;48.256;16.402;2024-02-21T09:23:11;17.50;77.90
13310;DHT22;6723;48.256;16.402;2024-02-21T09:25:37;17.60;79.30
13310;DHT22;6723;48.256;16.402;2024-02-21T09:28:03;17.40;78.60
13310;DHT22;6723;48.256;16.402;2024-02-21T09:30:31;17.80;77.70
13310;DHT22;6723;48.256;16.402;2024-02-21T09:32:58;18.10;77.70
13310;DHT22;6723;48.256;16.402;2024-02-21T09:35:28;18.90;76.70
13310;DHT22;6723;48.256;16.402;2024-02-21T09:37:54;19.30;76.40
13310;DHT22;6723;48.256;16.402;2024-02-21T09:40:20;21.50;74.00
13310;DHT22;6723;48.256;16.402;2024-02-21T09:42:47;21.60;73.60
13310;DHT22;6723;48.256;16.402;2024-02-21T09:45:24;22.10;71.60
13310;DHT22;6723;48.256;16.402;2024-02-21T09:50:21;21.30;70.20
13310;DHT22;6723;48.256;16.402;2024-02-21T09:52:48;20.40;71.60
13310;DHT22;6723;48.256;16.402;2024-02-21T09:55:15;20.00;77.60
13310;DHT22;6723;48.256;16.402;2024-02-21T09:57:44;20.30;71.40
13310;DHT22;6723;48.256;16.402;2024-02-21T10:00:10;20.40;71.50
13310;DHT22;6723;48.256;16.402;2024-02-21T10:02:36;19.80;70.90
13310;DHT22;6723;48.256;16.402;2024-02-21T10:05:04;19.40;71.10
13310;DHT22;6723;48.256;16.402;2024-02-21T10:07:33;20.20;71.30
13310;DHT22;6723;48.256;16.402;2024-02-21T10:10:05;20.20;70.90
13310;DHT22;6723;48.256;16.402;2024-02-21T10:12:31;18.60;72.00
13310;DHT22;6723;48.256;16.402;2024-02-21T10:15:05;18.70;73.30
13310;DHT22;6723;48.256;16.402;2024-02-21T10:17:32;19.00;73.00
13310;DHT22;6723;48.256;16.402;2024-02-21T10:20:10;17.80;72.70
13310;DHT22;6723;48.256;16.402;2024-02-21T10:22:38;17.30;73.40
13310;DHT22;6723;48.256;16.402;2024-02-21T10:25:14;16.70;75.10
13310;DHT22;6723;48.256;16.402;2024-02-21T10:27:40;16.30;76.20
13310;DHT22;6723;48.256;16.402;2024-02-21T10:30:12;16.00;77.10
13310;DHT22;6723;48.256;16.402;2024-02-21T10:32:52;16.00;77.10
13310;DHT22;6723;48.256;16.402;2024-02-21T10:35:32;16.80;76.70
13310;DHT22;6723;48.256;16.402;2024-02-21T10:37:59;16.40;77.00
13310;DHT22;6723;48.256;16.402;2024-02-21T10:40:29;16.20;77.60
13310;DHT22;6723;48.256;16.402;2024-02-21T10:42:57;16.00;78.30
13310;DHT22;6723;48.256;16.402;2024-02-21T10:45:45;15.50;78.70
13310;DHT22;6723;48.256;16.402;2024-02-21T10:48:13;15.40;79.60
13310;DHT22;6723;48.256;16.402;2024-02-21T10:51:03;15.50;79.90
13310;DHT22;6723;48.256;16.402;2024-02-21T10:56:31;15.00;80.60
13310;DHT22;6723;48.256;16.402;2024-02-21T10:59:02;14.60;80.90
13310;DHT22;6723;48.256;16.402;2024-02-21T11:01:29;14.30;81.40
13310;DHT22;6723;48.256;16.402;2024-02-21T11:03:59;14.20;81.90
13310;DHT22;6723;48.256;16.402;2024-02-21T11:06:27;14.50;82.00
13310;DHT22;6723;48.256;16.402;2024-02-21T11:09:04;14.20;82.20
13310;DHT22;6723;48.256;16.402;2024-02-21T11:11:49;14.10;82.10
13310;DHT22;6723;48.256;16.402;2024-02-21T11:14:20;13.90;82.90
13310;DHT22;6723;48.256;16.402;2024-02-21T11:16:47;13.80;82.90
13310;DHT22;6723;48.256;16.402;2024-02-21T11:19:24;13.80;83.80
13310;DHT22;6723;48.256;16.402;2024-02-21T11:21:51;13.70;83.80
13310;DHT22;6723;48.256;16.402;2024-02-21T11:24:33;13.50;84.40
13310;DHT22;6723;48.256;16.402;2024-02-21T11:29:48;13.50;84.90
13310;DHT22;6723;48.256;16.402;2024-02-21T11:32:18;13.50;85.20
13310;DHT22;6723;48.256;16.402;2024-02-21T11:34:54;13.40;85.30
13310;DHT22;6723;48.256;16.402;2024-02-21T11:37:20;13.60;85.30
13310;DHT22;6723;48.256;16.402;2024-02-21T11:39:46;13.60;85.30
13310;DHT22;6723;48.256;16.402;2024-02-21T11:42:12;13.50;85.30
13310;DHT22;6723;48.256;16.402;2024-02-21T11:44:39;13.30;85.50
13310;DHT22;6723;48.256;16.402;2024-02-21T11:47:06;13.40;85.10
13310;DHT22;6723;48.256;16.402;2024-02-21T11:49:43;13.60;84.20
13310;DHT22;6723;48.256;16.402;2024-02-21T11:52:11;13.70;83.80
13310;DHT22;6723;48.256;16.402;2024-02-21T11:54:37;13.60;83.80
13310;DHT22;6723;48.256;16.402;2024-02-21T11:57:03;13.60;84.00
13310;DHT22;6723;48.256;16.402;2024-02-21T11:59:32;13.50;84.10
13310;DHT22;6723;48.256;16.402;2024-02-21T12:01:59;13.70;84.30
13310;DHT22;6723;48.256;16.402;2024-02-21T12:04:25;13.50;83.60
13310;DHT22;6723;48.256;16.402;2024-02-21T12:06:52;13.50;84.20
13310;DHT22;6723;48.256;16.402;2024-02-21T12:09:18;13.70;84.30
13310;DHT22;6723;48.256;16.402;2024-02-21T12:11:45;13.60;83.50
13310;DHT22;6723;48.256;16.402;2024-02-21T12:14:16;13.50;83.70
13310;DHT22;6723;48.256;16.402;2024-02-21T12:16:42;13.70;83.30
13310;DHT22;6723;48.256;16.402;2024-02-21T12:19:13;13.60;83.50
13310;DHT22;6723;48.256;16.402;2024-02-21T12:21:39;13.50;83.30
13310;DHT22;6723;48.256;16.402;2024-02-21T12:26:40;13.50;82.90
13310;DHT22;6723;48.256;16.402;2024-02-21T12:29:06;13.20;83.20
13310;DHT22;6723;48.256;16.402;2024-02-21T12:31:36;13.20;83.60
13310;DHT22;6723;48.256;16.402;2024-02-21T12:34:02;13.30;84.10
13310;DHT22;6723;48.256;16.402;2024-02-21T12:36:28;13.30;83.90
13310;DHT22;6723;48.256;16.402;2024-02-21T12:38:54;13.40;83.90
13310;DHT22;6723;48.256;16.402;2024-02-21T12:41:20;13.30;83.50
13310;DHT22;6723;48.256;16.402;2024-02-21T12:43:46;13.30;83.40
13310;DHT22;6723;48.256;16.402;2024-02-21T12:46:12;13.20;83.70
13310;DHT22;6723;48.256;16.402;2024-02-21T12:48:38;13.20;84.00
13310;DHT22;6723;48.256;16.402;2024-02-21T12:51:05;13.20;84.00
13310;DHT22;6723;48.256;16.402;2024-02-21T12:53:31;13.30;84.00
13310;DHT22;6723;48.256;16.402;2024-02-21T12:55:57;13.40;83.70
13310;DHT22;6723;48.256;16.402;2024-02-21T12:58:23;13.60;83.80
13310;DHT22;6723;48.256;16.402;2024-02-21T13:00:48;13.60;83.10
13310;DHT22;6723;48.256;16.402;2024-02-21T13:03:14;13.60;82.50
13310;DHT22;6723;48.256;16.402;2024-02-21T13:05:40;13.70;82.30
13310;DHT22;6723;48.256;16.402;2024-02-21T13:08:06;13.90;83.00
13310;DHT22;6723;48.256;16.402;2024-02-21T13:10:33;14.00;81.40
13310;DHT22;6723;48.256;16.402;2024-02-21T13:13:00;14.00;81.40
13310;DHT22;6723;48.256;16.402;2024-02-21T13:15:26;13.70;80.90
13310;DHT22;6723;48.256;16.402;2024-02-21T13:17:54;13.60;81.00
13310;DHT22;6723;48.256;16.402;2024-02-21T13:20:20;13.60;81.30
13310;DHT22;6723;48.256;16.402;2024-02-21T13:22:46;13.60;81.00
13310;DHT22;6723;48.256;16.402;2024-02-21T13:25:12;13.70;80.60
13310;DHT22;6723;48.256;16.402;2024-02-21T13:27:44;13.70;79.50
13310;DHT22;6723;48.256;16.402;2024-02-21T13:30:10;13.60;79.10
13310;DHT22;6723;48.256;16.402;2024-02-21T13:32:36;13.60;79.30
13310;DHT22;6723;48.256;16.402;2024-02-21T13:35:03;13.60;79.20
13310;DHT22;6723;48.256;16.402;2024-02-21T13:37:29;13.90;79.70
13310;DHT22;6723;48.256;16.402;2024-02-21T13:39:54;14.00;79.20
13310;DHT22;6723;48.256;16.402;2024-02-21T13:42:20;14.00;79.10
13310;DHT22;6723;48.256;16.402;2024-02-21T13:44:46;14.10;79.30
13310;DHT22;6723;48.256;16.402;2024-02-21T13:47:15;14.10;79.10
13310;DHT22;6723;48.256;16.402;2024-02-21T13:49:41;14.10;78.90
13310;DHT22;6723;48.256;16.402;2024-02-21T13:52:07;14.20;78.80
13310;DHT22;6723;48.256;16.402;2024-02-21T13:54:35;14.30;78.90
13310;DHT22;6723;48.256;16.402;2024-02-21T13:57:01;14.30;78.40
13310;DHT22;6723;48.256;16.402;2024-02-21T13:59:28;14.20;77.80
13310;DHT22;6723;48.256;16.402;2024-02-21T14:01:54;14.30;78.40
13310;DHT22;6723;48.256;16.402;2024-02-21T14:04:20;14.30;77.10
13310;DHT22;6723;48.256;16.402;2024-02-21T14:06:46;14.20;77.00
13310;DHT22;6723;48.256;16.402;2024-02-21T14:09:12;14.10;76.80
13310;DHT22;6723;48.256;16.402;2024-02-21T14:11:38;14.00;76.70
13310;DHT22;6723;48.256;16.402;2024-02-21T14:14:06;14.00;77.30
13310;DHT22;6723;48.256;16.402;2024-02-21T14:16:32;14.00;77.30
13310;DHT22;6723;48.256;16.402;2024-02-21T14:18:58;14.10;77.60
13310;DHT22;6723;48.256;16.402;2024-02-21T14:21:24;14.10;77.40
13310;DHT22;6723;48.256;16.402;2024-02-21T14:23:49;13.90;76.00
13310;DHT22;6723;48.256;16.402;2024-02-21T14:26:15;14.00;76.70
13310;DHT22;6723;48.256;16.402;2024-02-21T14:28:41;14.10;76.10
13310;DHT22;6723;48.256;16.402;2024-02-21T14:31:07;14.00;76.40
13310;DHT22;6723;48.256;16.402;2024-02-21T14:33:35;14.20;76.60
13310;DHT22;6723;48.256;16.402;2024-02-21T14:36:01;14.20;75.90
13310;DHT22;6723;48.256;16.402;2024-02-21T14:38:28;14.20;74.70
13310;DHT22;6723;48.256;16.402;2024-02-21T14:40:54;14.20;75.40
13310;DHT22;6723;48.256;16.402;2024-02-21T14:43:20;14.20;76.50
13310;DHT22;6723;48.256;16.402;2024-02-21T14:45:48;14.30;75.20
13310;DHT22;6723;48.256;16.402;2024-02-21T14:48:14;14.10;75.20
13310;DHT22;6723;48.256;16.402;2024-02-21T14:50:40;14.10;75.50
13310;DHT22;6723;48.256;16.402;2024-02-21T14:53:08;14.20;75.20
13310;DHT22;6723;48.256;16.402;2024-02-21T14:55:34;14.20;75.20
13310;DHT22;6723;48.256;16.402;2024-02-21T14:58:00;14.30;75.30
13310;DHT22;6723;48.256;16.402;2024-02-21T15:00:26;14.40;74.90
13310;DHT22;6723;48.256;16.402;2024-02-21T15:02:59;14.40;74.50
13310;DHT22;6723;48.256;16.402;2024-02-21T15:05:25;14.50;75.00
13310;DHT22;6723;48.256;16.402;2024-02-21T15:07:52;14.50;74.90
13310;DHT22;6723;48.256;16.402;2024-02-21T15:10:18;14.50;74.20
13310;DHT22;6723;48.256;16.402;2024-02-21T15:12:47;14.40;74.90
13310;DHT22;6723;48.256;16.402;2024-02-21T15:15:13;14.60;75.40
13310;DHT22;6723;48.256;16.402;2024-02-21T15:17:39;14.60;74.90
13310;DHT22;6723;48.256;16.402;2024-02-21T15:20:05;14.80;75.20
13310;DHT22;6723;48.256;16.402;2024-02-21T15:22:34;14.70;75.10
13310;DHT22;6723;48.256;16.402;2024-02-21T15:25:01;14.50;75.00
13310;DHT22;6723;48.256;16.402;2024-02-21T15:27:26;14.40;74.90
13310;DHT22;6723;48.256;16.402;2024-02-21T15:29:53;14.10;75.20
13310;DHT22;6723;48.256;16.402;2024-02-21T15:32:20;14.20;75.60
13310;DHT22;6723;48.256;16.402;2024-02-21T15:34:46;14.20;75.80
13310;DHT22;6723;48.256;16.402;2024-02-21T15:37:12;14.10;76.30
13310;DHT22;6723;48.256;16.402;2024-02-21T15:39:41;13.90;77.00
13310;DHT22;6723;48.256;16.402;2024-02-21T15:42:09;13.80;77.70
13310;DHT22;6723;48.256;16.402;2024-02-21T15:44:35;13.70;77.80
13310;DHT22;6723;48.256;16.402;2024-02-21T15:47:01;13.50;78.40